Charter Quote
Worldwide +1-877-727-2538 Call
Select Language Lang
SAFETY RELIABILITY EXPERIENCE

Safdarjung Airport (VIDD) - Jet Charter Services

AIRPORT INFORMATION
ICAOVIDD
LOCATIONDelhi (New Delhi), India
FACILITY TYPEAIRPORT
Runway Length (ft) Width (ft) Surface Type Elevation (ft)
30/12 4520 150 ASP 695.54098

At Paramount Business Jets you can hire chartered private jets to and from Safdarjung Airport with as little as 4 hours of notice. All flights booked via Paramount Business Jets are operated by certified direct air carriers that meet and exceed the FAA part 135 and 121 protocol or a foreign equivalent safety authority. Furthermore, Paramount Business Jets subscribes to ARGUS for their third party safety checks of operators, aircraft, and crews prior each and every flight to and from Safdarjung Airport and worldwide.

  • Quote a trip using Safdarjung Airport or call us 24/7 - 365 days a year at +1-877-727-2538.
Questions? Call +1-877-727-2538

METAR Weather Data at Safdarjung Airport, VIDD

STATIONVIDD
OBSERVEDSat Feb 23, 13:00 UTC
NOWSat Feb 23, 16:00 UTC
AGE3:00 hr ago
WINDWNW at 7 mph
VISIBILITY4.8 miles
CONDITIONShaze
CLOUDSpartly cloudy
TEMP66°F (19°C)
DEWPT52°F (11°C)
HUMIDITY60%
BAROMETER1014 hPa (29.94 in Hg)
METARVIDD 231300Z 30006KT 3000 HZ FEW100 19/11 Q1014 NOSIG

Call us on +1-877-727-2538 (24 Hours) to Hire a Private Jet or Get a Quick Quote.

Find Airports Near any Location

Processing
...